createdAt,value
2023-12-29T00:00:20.711Z,141403.88
2023-12-29T00:03:06.535Z,141418.73
2023-12-29T00:05:51.755Z,141436.34
2023-12-29T00:08:37.669Z,141452.42
2023-12-29T00:11:23.411Z,141457.16
2023-12-29T00:14:09.014Z,141465.83
2023-12-29T00:16:57.827Z,141481.69
2023-12-29T00:19:43.561Z,141495.06
2023-12-29T00:22:29.774Z,141500.78
2023-12-29T00:25:15.150Z,141508.19
2023-12-29T00:28:00.933Z,141509.19
2023-12-29T00:30:57.163Z,141503.48
2023-12-29T00:33:47.106Z,141496.05
2023-12-29T00:36:33.285Z,141497.31
2023-12-29T00:39:19.021Z,141505.47
2023-12-29T00:42:06.615Z,141516.88
2023-12-29T00:44:51.947Z,141524.33
2023-12-29T00:47:37.997Z,141525.80
2023-12-29T00:50:23.615Z,141522.58
2023-12-29T00:53:09.261Z,141513.91
2023-12-29T00:55:56.124Z,141503.73
2023-12-29T00:58:41.857Z,141500.03
2023-12-29T01:01:27.552Z,141500.53
2023-12-29T01:04:13.471Z,141509.92
2023-12-29T01:06:58.848Z,141517.63
2023-12-29T01:09:44.480Z,141514.64
2023-12-29T01:12:30.612Z,141510.44
2023-12-29T01:15:16.401Z,141507.95
2023-12-29T01:18:02.466Z,141506.72
2023-12-29T01:20:48.101Z,141506.22
2023-12-29T01:23:33.757Z,141518.59
2023-12-29T01:26:19.216Z,141522.09
2023-12-29T01:29:06.699Z,141520.84
2023-12-29T01:31:52.230Z,141526.55
2023-12-29T01:34:38.340Z,141529.28
2023-12-29T01:37:24.281Z,141535.22
2023-12-29T01:40:10.817Z,141544.16
2023-12-29T01:42:56.806Z,141560.27
2023-12-29T01:45:49.475Z,141577.36
2023-12-29T01:48:41.720Z,141594.45
2023-12-29T01:51:27.931Z,141602.16
2023-12-29T01:54:13.790Z,141611.83
2023-12-29T01:57:02.726Z,141604.88
2023-12-29T01:59:49.496Z,141587.78
2023-12-29T02:02:35.230Z,141581.59
2023-12-29T02:05:25.524Z,141583.81
2023-12-29T02:08:11.762Z,141590.25
2023-12-29T02:10:57.337Z,141588.27
2023-12-29T02:13:43.055Z,141587.78
2023-12-29T02:16:39.227Z,141586.55
2023-12-29T02:19:46.040Z,141595.47
2023-12-29T02:22:31.940Z,141614.81
2023-12-29T02:25:17.964Z,141630.92
2023-12-29T02:28:23.703Z,141638.38
2023-12-29T02:31:18.560Z,141647.30
2023-12-29T02:34:11.571Z,141656.47
2023-12-29T02:36:59.298Z,141656.97
2023-12-29T02:39:44.850Z,141663.16
2023-12-29T02:42:31.737Z,141674.59
2023-12-29T02:45:18.916Z,141687.47
2023-12-29T02:48:05.271Z,141693.67
2023-12-29T02:50:51.683Z,141690.70
2023-12-29T02:53:37.272Z,141676.58
2023-12-29T02:56:23.004Z,141663.41
2023-12-29T02:59:08.606Z,141649.77
2023-12-29T03:01:54.011Z,141647.80
2023-12-29T03:04:40.972Z,141647.78
2023-12-29T03:07:26.792Z,141650.53
2023-12-29T03:10:12.332Z,141648.03
2023-12-29T03:12:58.024Z,141649.03
2023-12-29T03:15:43.803Z,141649.52
2023-12-29T03:18:30.170Z,141640.34
2023-12-29T03:21:15.952Z,141632.41
2023-12-29T03:24:01.815Z,141638.63
2023-12-29T03:26:47.525Z,141648.53
2023-12-29T03:29:33.351Z,141647.30
2023-12-29T03:32:19.575Z,141640.09
2023-12-29T03:35:05.913Z,141630.92
2023-12-29T03:37:51.804Z,141626.20
2023-12-29T03:40:37.394Z,141628.95
2023-12-29T03:43:23.016Z,141631.41
2023-12-29T03:46:22.391Z,141634.91
2023-12-29T03:49:08.331Z,141628.69
2023-12-29T03:51:53.980Z,141617.53
2023-12-29T03:54:39.710Z,141610.09
2023-12-29T03:57:25.436Z,141606.63
2023-12-29T04:00:15.285Z,141608.13
2023-12-29T04:03:02.616Z,141607.38
2023-12-29T04:05:48.300Z,141601.41
2023-12-29T04:08:34.854Z,141598.44
2023-12-29T04:11:20.384Z,141598.95
2023-12-29T04:14:06.177Z,141603.41
2023-12-29T04:16:51.668Z,141601.66
2023-12-29T04:19:37.436Z,141594.97
2023-12-29T04:22:23.013Z,141580.09
2023-12-29T04:25:09.132Z,141556.30
2023-12-29T04:27:55.117Z,141528.78
2023-12-29T04:30:40.580Z,141503.73
2023-12-29T04:33:26.660Z,141478.97
2023-12-29T04:36:12.952Z,141453.92
2023-12-29T04:38:58.951Z,141432.61
2023-12-29T04:41:44.534Z,141412.53
2023-12-29T04:44:30.022Z,141388.25
2023-12-29T04:47:17.142Z,141366.70
2023-12-29T04:50:03.176Z,141345.16
2023-12-29T04:52:49.280Z,141322.86
2023-12-29T04:55:34.721Z,141298.59
2023-12-29T04:58:20.643Z,141279.53
2023-12-29T05:01:06.622Z,141263.67
2023-12-29T05:03:52.651Z,141244.84
2023-12-29T05:06:38.107Z,141227.78
2023-12-29T05:09:23.934Z,141209.17
2023-12-29T05:12:09.711Z,141195.83
2023-12-29T05:14:55.225Z,141186.41
2023-12-29T05:17:40.802Z,141184.44
2023-12-29T05:20:26.319Z,141175.53
2023-12-29T05:23:11.634Z,141166.13
2023-12-29T05:25:57.211Z,141146.81
2023-12-29T05:28:43.032Z,141131.22
2023-12-29T05:31:28.722Z,141123.05
2023-12-29T05:34:14.409Z,141117.88
2023-12-29T05:37:00.439Z,141113.39
2023-12-29T05:39:46.032Z,141101.02
2023-12-29T05:42:31.950Z,141087.67
2023-12-29T05:45:18.294Z,141080.98
2023-12-29T05:48:04.519Z,141080.50
2023-12-29T05:50:53.892Z,141079.73
2023-12-29T05:53:42.463Z,141078.02
2023-12-29T05:56:28.753Z,141079.27
2023-12-29T05:59:14.711Z,141074.80
2023-12-29T06:02:00.262Z,141068.84
2023-12-29T06:04:46.009Z,141066.14
2023-12-29T06:07:31.652Z,141071.34
2023-12-29T06:10:17.300Z,141079.98
2023-12-29T06:13:03.796Z,141087.42
2023-12-29T06:15:49.656Z,141093.84
2023-12-29T06:18:36.014Z,141101.28
2023-12-29T06:21:21.839Z,141143.34
2023-12-29T06:24:07.222Z,141281.52
2023-12-29T06:26:53.859Z,141473.52
2023-12-29T06:29:42.684Z,141677.55
2023-12-29T06:32:28.158Z,141879.28
2023-12-29T06:35:14.359Z,142045.39
2023-12-29T06:38:00.405Z,142214.59
2023-12-29T06:40:46.025Z,142350.08
2023-12-29T06:43:31.821Z,142495.84
2023-12-29T06:46:17.814Z,142643.14
2023-12-29T06:49:04.140Z,142761.42
2023-12-29T06:51:49.863Z,142830.91
2023-12-29T06:54:35.459Z,142814.47
2023-12-29T06:57:21.009Z,142818.45
2023-12-29T07:00:07.376Z,142859.80
2023-12-29T07:02:53.426Z,142944.53
2023-12-29T07:05:38.975Z,143086.13
2023-12-29T07:08:24.301Z,143234.98
2023-12-29T07:11:12.117Z,143328.05
2023-12-29T07:13:57.921Z,143388.97
2023-12-29T07:16:44.744Z,143467.83
2023-12-29T07:19:37.260Z,143555.75
2023-12-29T07:22:22.568Z,143671.41
2023-12-29T07:25:08.380Z,143762.91
2023-12-29T07:27:56.103Z,143860.13
2023-12-29T07:30:42.096Z,143972.66
2023-12-29T07:33:27.993Z,143998.92
2023-12-29T07:36:15.373Z,143929.41
2023-12-29T07:39:01.170Z,143911.66
2023-12-29T07:41:49.215Z,143821.63
2023-12-29T07:44:34.674Z,143740.66
2023-12-29T07:47:20.022Z,143632.92
2023-12-29T07:50:06.543Z,143500.30
2023-12-29T07:52:52.148Z,143390.70
2023-12-29T07:55:39.909Z,143266.67
2023-12-29T07:58:25.690Z,143185.36
2023-12-29T08:01:11.692Z,143150.92
2023-12-29T08:03:57.588Z,143091.59
2023-12-29T08:06:43.124Z,142987.66
2023-12-29T08:09:29.000Z,142874.25
2023-12-29T08:12:14.637Z,142881.22
2023-12-29T08:15:01.082Z,142905.16
2023-12-29T08:17:46.598Z,142942.53
2023-12-29T08:20:32.370Z,142936.05
2023-12-29T08:23:18.230Z,142903.91
2023-12-29T08:26:04.035Z,142804.50
2023-12-29T08:28:49.826Z,142692.69
2023-12-29T08:31:35.458Z,142655.09
2023-12-29T08:34:21.242Z,142637.20
2023-12-29T08:37:07.228Z,142596.59
2023-12-29T08:39:53.473Z,142527.94
2023-12-29T08:42:39.308Z,142484.88
2023-12-29T08:45:25.082Z,142487.11
2023-12-29T08:48:10.919Z,142477.17
2023-12-29T08:50:57.788Z,142457.52
2023-12-29T08:53:43.518Z,142439.61
2023-12-29T08:56:29.684Z,142407.28
2023-12-29T08:59:15.375Z,142389.11
2023-12-29T09:02:00.906Z,142405.28
2023-12-29T09:04:47.013Z,142485.39
2023-12-29T09:07:32.865Z,142558.78
2023-12-29T09:10:19.094Z,142609.53
2023-12-29T09:13:06.002Z,142656.34
2023-12-29T09:15:51.505Z,142660.31
2023-12-29T09:18:37.348Z,142626.97
2023-12-29T09:21:23.296Z,142599.33
2023-12-29T09:24:09.012Z,142558.55
2023-12-29T09:26:54.861Z,142535.89
2023-12-29T09:29:40.985Z,142491.36
2023-12-29T09:32:26.738Z,142456.52
2023-12-29T09:35:20.424Z,142423.17
2023-12-29T09:38:06.030Z,142413.73
2023-12-29T09:40:54.241Z,142402.05
2023-12-29T09:43:41.101Z,142385.63
2023-12-29T09:46:32.239Z,142377.42
2023-12-29T09:49:19.812Z,142390.84
2023-12-29T09:52:10.203Z,142405.28
2023-12-29T09:54:55.651Z,142398.33
2023-12-29T09:57:42.605Z,142395.33
2023-12-29T10:00:30.119Z,142403.78
2023-12-29T10:03:15.507Z,142404.78
2023-12-29T10:06:08.399Z,142400.80
2023-12-29T10:08:57.891Z,142385.39
2023-12-29T10:11:49.439Z,142379.42
2023-12-29T10:14:50.208Z,142384.63
2023-12-29T10:17:51.229Z,142398.56
2023-12-29T10:20:59.804Z,142410.75
2023-12-29T10:23:58.092Z,142411.50
2023-12-29T10:26:44.688Z,142416.47
2023-12-29T10:29:30.707Z,142428.41
2023-12-29T10:32:16.468Z,142419.20
2023-12-29T10:35:10.180Z,142422.69
2023-12-29T10:38:09.788Z,142411.02
2023-12-29T10:40:55.316Z,142389.59
2023-12-29T10:43:45.250Z,142387.88
2023-12-29T10:46:31.098Z,142396.56
2023-12-29T10:49:18.975Z,142394.59
2023-12-29T10:52:13.572Z,142376.94
2023-12-29T10:55:08.049Z,142367.22
2023-12-29T10:58:01.346Z,142363.02
2023-12-29T11:00:47.347Z,142363.50
2023-12-29T11:03:32.968Z,142368.22
2023-12-29T11:06:18.819Z,142383.16
2023-12-29T11:09:05.819Z,142402.06
2023-12-29T11:11:52.382Z,142416.72
2023-12-29T11:14:40.862Z,142424.44
2023-12-29T11:17:27.182Z,142419.47
2023-12-29T11:20:15.363Z,142408.27
2023-12-29T11:23:02.107Z,142391.34
2023-12-29T11:25:49.340Z,142372.95
2023-12-29T11:28:35.952Z,142350.08
2023-12-29T11:31:22.669Z,142319.00
2023-12-29T11:34:16.987Z,142294.88
2023-12-29T11:37:19.491Z,142278.22
2023-12-29T11:40:34.461Z,142258.56
2023-12-29T11:43:20.997Z,142236.97
2023-12-29T11:46:06.278Z,142235.72
2023-12-29T11:48:57.051Z,142250.13
2023-12-29T11:51:49.602Z,142272.27
2023-12-29T11:54:36.668Z,142277.50
2023-12-29T11:57:34.697Z,142280.20
2023-12-29T12:00:21.010Z,142277.23
2023-12-29T12:03:27.238Z,142267.53
2023-12-29T12:06:41.881Z,142270.77
2023-12-29T12:09:27.278Z,142266.53
2023-12-29T12:12:13.183Z,142265.28
2023-12-29T12:14:59.046Z,142267.52
2023-12-29T12:17:47.342Z,142261.33
2023-12-29T12:20:33.083Z,142254.84
2023-12-29T12:23:20.113Z,142252.13
2023-12-29T12:26:06.884Z,142257.59
2023-12-29T12:28:54.189Z,142247.41
2023-12-29T12:31:56.081Z,142231.00
2023-12-29T12:34:42.165Z,142219.83
2023-12-29T12:37:30.387Z,142209.38
2023-12-29T12:40:27.879Z,142202.16
2023-12-29T12:43:17.745Z,142204.41
2023-12-29T12:46:05.161Z,142204.64
2023-12-29T12:48:52.053Z,142212.11
2023-12-29T12:51:38.027Z,142212.34
2023-12-29T12:54:24.070Z,142210.11
2023-12-29T12:57:09.781Z,142206.88
2023-12-29T12:59:56.935Z,142210.84
2023-12-29T13:02:47.066Z,142212.84
2023-12-29T13:05:33.302Z,142211.34
2023-12-29T13:08:26.656Z,142211.36
2023-12-29T13:11:22.545Z,142218.33
2023-12-29T13:14:08.454Z,142220.80
2023-12-29T13:16:53.774Z,142217.33
2023-12-29T13:19:41.248Z,142216.06
2023-12-29T13:22:29.132Z,142213.84
2023-12-29T13:25:21.065Z,142228.00
2023-12-29T13:28:08.273Z,142254.34
2023-12-29T13:30:55.509Z,142288.16
2023-12-29T13:33:56.590Z,142300.34
2023-12-29T13:36:54.303Z,142307.80
2023-12-29T13:39:46.730Z,142299.11
2023-12-29T13:42:33.607Z,142289.91
2023-12-29T13:45:20.489Z,142268.03
2023-12-29T13:48:08.552Z,142243.92
2023-12-29T13:50:55.159Z,142220.30
2023-12-29T13:53:41.306Z,142187.25
2023-12-29T13:56:27.259Z,142147.50
2023-12-29T13:59:13.534Z,142111.97
2023-12-29T14:02:04.246Z,142075.70
2023-12-29T14:04:50.438Z,142045.89
2023-12-29T14:07:36.966Z,142024.52
2023-12-29T14:10:22.475Z,142000.70
2023-12-29T14:13:09.478Z,141981.08
2023-12-29T14:15:59.035Z,141956.97
2023-12-29T14:18:47.110Z,141924.22
2023-12-29T14:21:34.427Z,141901.11
2023-12-29T14:24:21.592Z,141882.77
2023-12-29T14:27:08.708Z,141866.13
2023-12-29T14:29:54.802Z,141854.72
2023-12-29T14:32:40.650Z,141843.03
2023-12-29T14:35:26.196Z,141833.34
2023-12-29T14:38:17.293Z,141820.47
2023-12-29T14:41:04.069Z,141807.55
2023-12-29T14:43:50.290Z,141796.63
2023-12-29T14:46:37.277Z,141785.45
2023-12-29T14:49:23.060Z,141777.77
2023-12-29T14:52:08.502Z,141768.59
2023-12-29T14:54:53.771Z,141757.92
2023-12-29T14:57:39.878Z,141743.28
2023-12-29T15:00:25.995Z,141727.92
2023-12-29T15:03:12.660Z,141712.53
2023-12-29T15:05:59.624Z,141698.63
2023-12-29T15:08:45.549Z,141688.47
2023-12-29T15:11:31.336Z,141684.75
2023-12-29T15:14:16.836Z,141681.75
2023-12-29T15:17:02.396Z,141673.34
2023-12-29T15:19:48.590Z,141661.92
2023-12-29T15:22:34.637Z,141652.00
2023-12-29T15:25:20.480Z,141644.06
2023-12-29T15:28:07.291Z,141638.38
2023-12-29T15:30:53.161Z,141633.16
2023-12-29T15:33:38.868Z,141627.45
2023-12-29T15:36:24.583Z,141622.48
2023-12-29T15:39:10.246Z,141619.28
2023-12-29T15:41:55.812Z,141623.23
2023-12-29T15:44:41.293Z,141629.42
2023-12-29T15:47:26.942Z,141635.16
2023-12-29T15:50:12.469Z,141627.95
2023-12-29T15:52:58.412Z,141619.53
2023-12-29T15:55:44.219Z,141615.78
2023-12-29T15:58:30.805Z,141620.25
2023-12-29T16:01:26.194Z,141626.47
2023-12-29T16:04:11.738Z,141643.58
2023-12-29T16:06:57.403Z,141662.41
2023-12-29T16:09:43.410Z,141670.11
2023-12-29T16:12:29.385Z,141673.34
2023-12-29T16:15:15.100Z,141678.78
2023-12-29T16:18:00.862Z,141690.70
2023-12-29T16:20:46.658Z,141709.80
2023-12-29T16:23:33.073Z,141726.19
2023-12-29T16:26:25.529Z,141735.84
2023-12-29T16:29:13.527Z,141741.05
2023-12-29T16:31:58.787Z,141750.47
2023-12-29T16:34:44.802Z,141762.89
2023-12-29T16:37:38.840Z,141780.75
2023-12-29T16:40:24.272Z,141794.66
2023-12-29T16:43:10.652Z,141797.13
2023-12-29T16:45:56.571Z,141800.84
2023-12-29T16:48:43.815Z,141812.25
2023-12-29T16:51:30.566Z,141823.17
2023-12-29T16:54:16.269Z,141828.13
2023-12-29T16:57:03.518Z,141837.59
2023-12-29T16:59:49.538Z,141843.53
2023-12-29T17:02:35.783Z,141848.98
2023-12-29T17:05:24.017Z,141857.45
2023-12-29T17:08:09.846Z,141867.13
2023-12-29T17:10:55.659Z,141877.53
2023-12-29T17:13:41.336Z,141883.00
2023-12-29T17:16:30.315Z,141880.03
2023-12-29T17:19:21.110Z,141876.28
2023-12-29T17:22:07.634Z,141869.09
2023-12-29T17:24:53.397Z,141872.83
2023-12-29T17:27:39.180Z,141883.52
2023-12-29T17:30:24.644Z,141886.97
2023-12-29T17:33:10.340Z,141883.50
2023-12-29T17:35:56.064Z,141880.53
2023-12-29T17:38:43.118Z,141883.75
2023-12-29T17:41:29.556Z,141891.20
2023-12-29T17:44:15.564Z,141899.16
2023-12-29T17:47:00.996Z,141905.34
2023-12-29T17:49:46.842Z,141911.31
2023-12-29T17:52:32.477Z,141915.27
2023-12-29T17:55:18.606Z,141917.75
2023-12-29T17:58:04.953Z,141920.25
2023-12-29T18:00:51.395Z,141923.72
2023-12-29T18:03:37.346Z,141927.92
2023-12-29T18:06:24.696Z,141929.69
2023-12-29T18:09:15.938Z,141917.77
2023-12-29T18:12:03.845Z,141909.31
2023-12-29T18:14:53.289Z,141895.41
2023-12-29T18:17:39.148Z,141884.98
2023-12-29T18:20:25.431Z,141869.09
2023-12-29T18:23:11.003Z,141848.52
2023-12-29T18:25:57.670Z,141828.14
2023-12-29T18:28:43.654Z,141813.98
2023-12-29T18:31:29.815Z,141806.80
2023-12-29T18:34:16.012Z,141799.36
2023-12-29T18:37:01.996Z,141790.42
2023-12-29T18:39:49.383Z,141779.75
2023-12-29T18:42:35.636Z,141767.84
2023-12-29T18:45:24.028Z,141757.42
2023-12-29T18:48:09.989Z,141747.50
2023-12-29T18:50:55.976Z,141744.53
2023-12-29T18:53:41.571Z,141738.33
2023-12-29T18:56:27.307Z,141727.91
2023-12-29T18:59:13.962Z,141718.72
2023-12-29T19:02:00.192Z,141710.53
2023-12-29T19:04:51.080Z,141702.84
2023-12-29T19:07:36.870Z,141694.92
2023-12-29T19:10:22.974Z,141689.45
2023-12-29T19:13:08.754Z,141683.00
2023-12-29T19:15:54.849Z,141675.83
2023-12-29T19:18:40.432Z,141667.63
2023-12-29T19:21:28.834Z,141659.94
2023-12-29T19:24:14.783Z,141653.50
2023-12-29T19:27:00.366Z,141649.53
2023-12-29T19:29:46.842Z,141642.84
2023-12-29T19:32:37.022Z,141636.88
2023-12-29T19:35:26.001Z,141633.14
2023-12-29T19:38:16.968Z,141630.17
2023-12-29T19:41:05.235Z,141625.95
2023-12-29T19:43:51.951Z,141618.03
2023-12-29T19:46:42.473Z,141613.33
2023-12-29T19:49:30.391Z,141601.91
2023-12-29T19:52:19.980Z,141594.72
2023-12-29T19:55:06.300Z,141592.25
2023-12-29T19:57:52.450Z,141588.78
2023-12-29T20:00:38.472Z,141582.83
2023-12-29T20:03:24.867Z,141574.64
2023-12-29T20:06:22.025Z,141566.70
2023-12-29T20:09:08.678Z,141557.03
2023-12-29T20:11:54.373Z,141548.38
2023-12-29T20:14:40.471Z,141541.67
2023-12-29T20:17:27.203Z,141536.97
2023-12-29T20:20:17.401Z,141525.80
2023-12-29T20:23:04.398Z,141521.58
2023-12-29T20:25:55.201Z,141516.38
2023-12-29T20:28:40.866Z,141511.66
2023-12-29T20:31:29.006Z,141512.17
2023-12-29T20:34:15.582Z,141507.20
2023-12-29T20:37:01.884Z,141504.72
2023-12-29T20:39:50.033Z,141502.00
2023-12-29T20:42:36.141Z,141499.78
2023-12-29T20:45:22.114Z,141495.55
2023-12-29T20:48:08.685Z,141491.09
2023-12-29T20:51:00.773Z,141485.91
2023-12-29T20:53:51.005Z,141477.95
2023-12-29T20:56:37.035Z,141470.28
2023-12-29T20:59:23.063Z,141466.06
2023-12-29T21:02:08.701Z,141467.55
2023-12-29T21:04:54.897Z,141464.34
2023-12-29T21:07:41.805Z,141460.13
2023-12-29T21:10:27.160Z,141452.45
2023-12-29T21:13:12.830Z,141440.28
2023-12-29T21:15:59.058Z,141427.66
2023-12-29T21:18:45.730Z,141423.20
2023-12-29T21:21:38.825Z,141422.19
2023-12-29T21:24:24.561Z,141418.97
2023-12-29T21:27:10.099Z,141411.05
2023-12-29T21:29:55.956Z,141403.11
2023-12-29T21:32:42.804Z,141396.42
2023-12-29T21:35:29.228Z,141394.70
2023-12-29T21:38:15.287Z,141390.72
2023-12-29T21:41:02.992Z,141386.02
2023-12-29T21:43:48.953Z,141374.64
2023-12-29T21:46:42.479Z,141360.28
2023-12-29T21:49:30.768Z,141357.03
2023-12-29T21:52:16.587Z,141356.30
2023-12-29T21:55:02.574Z,141357.80
2023-12-29T21:57:48.709Z,141354.06
2023-12-29T22:00:34.719Z,141350.34
2023-12-29T22:03:20.667Z,141344.16
2023-12-29T22:06:06.367Z,141342.44
2023-12-29T22:08:51.770Z,141343.17
2023-12-29T22:11:37.568Z,141340.94
2023-12-29T22:14:23.813Z,141336.22
2023-12-29T22:17:09.198Z,141333.27
2023-12-29T22:19:54.884Z,141327.58
2023-12-29T22:22:40.670Z,141323.83
2023-12-29T22:25:29.457Z,141325.09
2023-12-29T22:28:15.742Z,141331.28
2023-12-29T22:31:01.554Z,141330.03
2023-12-29T22:33:47.531Z,141324.83
2023-12-29T22:36:33.501Z,141314.92
2023-12-29T22:39:18.905Z,141307.03
2023-12-29T22:42:04.956Z,141307.52
2023-12-29T22:44:50.860Z,141309.23
2023-12-29T22:47:39.354Z,141308.75
2023-12-29T22:50:24.958Z,141304.53
2023-12-29T22:53:10.304Z,141297.09
2023-12-29T22:55:56.133Z,141293.38
2023-12-29T22:58:55.641Z,141292.41
2023-12-29T23:01:41.597Z,141291.41
2023-12-29T23:04:27.739Z,141287.67
2023-12-29T23:07:13.695Z,141284.22
2023-12-29T23:09:59.257Z,141274.80
2023-12-29T23:12:44.858Z,141271.11
2023-12-29T23:15:31.596Z,141269.88
2023-12-29T23:18:17.472Z,141270.86
2023-12-29T23:21:03.181Z,141270.11
2023-12-29T23:23:48.466Z,141262.19
2023-12-29T23:26:41.011Z,141256.00
2023-12-29T23:29:26.591Z,141251.30
2023-12-29T23:32:12.161Z,141249.30
2023-12-29T23:35:05.059Z,141253.78
2023-12-29T23:37:55.936Z,141251.05
2023-12-29T23:40:42.087Z,141250.28
2023-12-29T23:43:27.444Z,141246.59
2023-12-29T23:46:13.378Z,141241.63
2023-12-29T23:48:59.191Z,141237.17
2023-12-29T23:51:44.890Z,141235.70
2023-12-29T23:54:31.004Z,141231.50
2023-12-29T23:57:16.219Z,141218.13
